Time;durP1;ratioP1;P1;durP2;ratioP2;P2;SDS_P1;SDS_P2;PMS_P1;PMS_P2;Temp;Humidity;BMP_temperature;BMP_pressure;BME280_temperature;BME280_humidity;BME280_pressure;Samples;Min_cycle;Max_cycle;Signal;HPM_P1;HPM_P2
2022/12/10 00:01:35;;;;;;;39.35;16.95;;;;;;;;;;4897840;29;20051;-69
2022/12/10 00:04:01;;;;;;;40.22;16.67;;;;;;;;;;4897608;29;20116;-68
2022/12/10 00:06:28;;;;;;;43.00;16.48;;;;;;;;;;4897550;29;20043;-68
2022/12/10 00:08:54;;;;;;;42.60;17.05;;;;;;;;;;4913307;29;20044;-67
2022/12/10 00:11:20;;;;;;;42.95;15.95;;;;;;;;;;4913369;29;20045;-68
2022/12/10 00:13:47;;;;;;;43.08;15.77;;;;;;;;;;4897430;29;21312;-68
2022/12/10 00:16:13;;;;;;;40.00;15.52;;;;;;;;;;4898816;29;20045;-67
2022/12/10 00:18:39;;;;;;;33.85;14.93;;;;;;;;;;4898847;29;20121;-68
2022/12/10 00:21:05;;;;;;;35.83;14.40;;;;;;;;;;4897391;29;20064;-67
2022/12/10 00:23:32;;;;;;;41.97;15.02;;;;;;;;;;4913055;29;20044;-67
2022/12/10 00:26:04;;;;;;;33.00;14.63;;;;;;;;;;4898667;29;20463;-69
2022/12/10 00:28:29;;;;;;;30.88;13.73;;;;;;;;;;4898595;29;20076;-68
2022/12/10 00:30:55;;;;;;;31.52;14.48;;;;;;;;;;4913297;29;20454;-67
2022/12/10 00:33:20;;;;;;;33.80;14.20;;;;;;;;;;4898624;29;20518;-70
2022/12/10 00:35:46;;;;;;;37.15;14.15;;;;;;;;;;4897324;29;20495;-67
2022/12/10 00:38:11;;;;;;;34.72;13.65;;;;;;;;;;4896834;29;20048;-67
2022/12/10 00:40:37;;;;;;;34.30;14.93;;;;;;;;;;4898619;29;20087;-67
2022/12/10 00:43:03;;;;;;;33.38;13.95;;;;;;;;;;4896778;29;20490;-68
2022/12/10 00:45:28;;;;;;;34.15;14.75;;;;;;;;;;4912822;29;20041;-68
2022/12/10 00:47:55;;;;;;;35.60;14.75;;;;;;;;;;4912557;29;20045;-68
2022/12/10 00:50:21;;;;;;;35.83;14.68;;;;;;;;;;4912616;29;20044;-68
2022/12/10 00:52:47;;;;;;;31.02;13.95;;;;;;;;;;4912531;29;20113;-68
2022/12/10 00:55:12;;;;;;;36.15;14.32;;;;;;;;;;4912687;29;20133;-67
2022/12/10 00:57:38;;;;;;;34.58;14.57;;;;;;;;;;4896394;29;20041;-69
2022/12/10 01:00:04;;;;;;;33.20;14.18;;;;;;;;;;4898231;29;20120;-67
2022/12/10 01:02:30;;;;;;;35.90;14.55;;;;;;;;;;4912322;29;20049;-68
2022/12/10 01:04:55;;;;;;;33.20;14.98;;;;;;;;;;4912350;29;20047;-68
2022/12/10 01:07:21;;;;;;;31.98;14.07;;;;;;;;;;4898358;29;20410;-68
2022/12/10 01:09:46;;;;;;;30.02;13.02;;;;;;;;;;4912456;29;20395;-68
2022/12/10 01:12:13;;;;;;;35.33;14.60;;;;;;;;;;4912127;29;20524;-68
2022/12/10 01:14:38;;;;;;;35.65;14.32;;;;;;;;;;4912341;29;20048;-68
2022/12/10 01:17:05;;;;;;;37.53;14.88;;;;;;;;;;4896374;29;20048;-68
2022/12/10 01:19:32;;;;;;;33.80;13.60;;;;;;;;;;4897632;29;20124;-68
2022/12/10 01:22:00;;;;;;;30.37;13.70;;;;;;;;;;4880515;29;20092;-68
2022/12/10 01:24:26;;;;;;;36.38;14.00;;;;;;;;;;4896368;29;20289;-68
2022/12/10 01:26:52;;;;;;;32.83;13.50;;;;;;;;;;4897733;29;20107;-67
2022/12/10 01:29:20;;;;;;;42.03;14.73;;;;;;;;;;4896682;29;20037;-67
2022/12/10 01:31:47;;;;;;;32.90;14.30;;;;;;;;;;4897730;29;20040;-69
2022/12/10 01:34:13;;;;;;;32.50;13.35;;;;;;;;;;4912010;29;20585;-70
2022/12/10 01:36:41;;;;;;;36.05;14.75;;;;;;;;;;4897319;29;20044;-69
2022/12/10 01:39:08;;;;;;;32.00;13.50;;;;;;;;;;4897222;29;20071;-69
2022/12/10 01:41:38;;;;;;;34.78;14.07;;;;;;;;;;4897187;29;20104;-71
2022/12/10 01:44:07;;;;;;;28.13;12.70;;;;;;;;;;4911690;29;20044;-70
2022/12/10 01:46:35;;;;;;;32.03;12.27;;;;;;;;;;4895820;29;20049;-71
2022/12/10 01:49:04;;;;;;;33.83;13.73;;;;;;;;;;4911555;29;20486;-70
2022/12/10 01:51:31;;;;;;;31.55;13.52;;;;;;;;;;4895959;29;20033;-70
2022/12/10 01:53:57;;;;;;;29.92;13.43;;;;;;;;;;4911543;29;20052;-69
2022/12/10 01:56:22;;;;;;;27.15;12.32;;;;;;;;;;4895757;29;20044;-70
2022/12/10 01:58:50;;;;;;;33.58;13.63;;;;;;;;;;4911513;29;20107;-70
2022/12/10 02:01:15;;;;;;;33.55;13.95;;;;;;;;;;4896935;29;20064;-70
2022/12/10 02:03:44;;;;;;;26.83;11.73;;;;;;;;;;4895475;29;20049;-70
2022/12/10 02:06:16;;;;;;;32.15;12.15;;;;;;;;;;4911144;29;20044;-70
2022/12/10 02:08:47;;;;;;;30.08;12.30;;;;;;;;;;4895579;29;20040;-70
2022/12/10 02:11:19;;;;;;;30.85;13.65;;;;;;;;;;4895517;29;20048;-70
2022/12/10 02:14:06;;;;;;;33.45;13.57;;;;;;;;;;4895482;29;20067;-69
2022/12/10 02:16:36;;;;;;;33.35;14.52;;;;;;;;;;4911205;29;20040;-70
2022/12/10 02:19:21;;;;;;;38.92;14.60;;;;;;;;;;4895254;29;20044;-71
2022/12/10 02:21:48;;;;;;;34.78;14.77;;;;;;;;;;4886059;29;20079;-70
2022/12/10 02:24:15;;;;;;;38.60;14.60;;;;;;;;;;4896585;29;20110;-70
2022/12/10 02:27:00;;;;;;;37.55;15.05;;;;;;;;;;4895301;29;20138;-73
2022/12/10 02:29:27;;;;;;;36.85;13.98;;;;;;;;;;4895250;29;20086;-70
2022/12/10 02:31:55;;;;;;;34.92;14.80;;;;;;;;;;4894734;29;20498;-70
2022/12/10 02:34:23;;;;;;;36.17;14.73;;;;;;;;;;4894739;29;20047;-71
2022/12/10 02:36:49;;;;;;;40.00;14.80;;;;;;;;;;4895175;29;20043;-70
2022/12/10 02:39:17;;;;;;;36.42;14.27;;;;;;;;;;4897014;29;20186;-71
2022/12/10 02:41:51;;;;;;;40.13;15.63;;;;;;;;;;4911266;29;20036;-70
2022/12/10 02:44:18;;;;;;;38.05;14.23;;;;;;;;;;4896614;29;20406;-70
2022/12/10 02:46:45;;;;;;;36.22;15.63;;;;;;;;;;4896381;29;20052;-70
2022/12/10 02:49:13;;;;;;;36.30;15.95;;;;;;;;;;4910878;29;20165;-70
2022/12/10 02:51:38;;;;;;;40.85;14.70;;;;;;;;;;4895105;29;20056;-70
2022/12/10 02:54:06;;;;;;;40.08;15.75;;;;;;;;;;4910893;29;20045;-71
2022/12/10 02:56:49;;;;;;;30.30;14.05;;;;;;;;;;4910820;29;20530;-70
2022/12/10 02:59:33;;;;;;;39.33;14.55;;;;;;;;;;4895148;29;20489;-70
2022/12/10 03:02:26;;;;;;;45.45;15.07;;;;;;;;;;4910674;29;20076;-70
2022/12/10 03:04:52;;;;;;;38.75;13.77;;;;;;;;;;4863366;29;20056;-70
2022/12/10 03:07:22;;;;;;;46.58;15.07;;;;;;;;;;4896368;29;20049;-70
2022/12/10 03:09:49;;;;;;;37.78;14.93;;;;;;;;;;4896378;29;20041;-71
2022/12/10 03:12:19;;;;;;;41.90;14.93;;;;;;;;;;4895963;29;20399;-70
2022/12/10 03:14:45;;;;;;;46.28;15.43;;;;;;;;;;4896433;29;20051;-71
2022/12/10 03:17:12;;;;;;;43.15;14.50;;;;;;;;;;4910756;29;20044;-70
2022/12/10 03:19:44;;;;;;;42.28;15.70;;;;;;;;;;4910579;29;20055;-70
2022/12/10 03:22:12;;;;;;;43.35;15.50;;;;;;;;;;4895916;29;20139;-70
2022/12/10 03:24:37;;;;;;;43.63;15.20;;;;;;;;;;4896249;29;20397;-70
2022/12/10 03:27:04;;;;;;;42.67;14.63;;;;;;;;;;4895990;29;20123;-71
2022/12/10 03:29:33;;;;;;;33.03;14.38;;;;;;;;;;4894980;29;20284;-70
2022/12/10 03:31:59;;;;;;;41.33;14.48;;;;;;;;;;4894809;29;20048;-72
2022/12/10 03:34:24;;;;;;;42.60;16.95;;;;;;;;;;4894655;29;20076;-71
2022/12/10 03:36:50;;;;;;;50.80;17.52;;;;;;;;;;4895901;29;20454;-70
2022/12/10 03:39:16;;;;;;;47.97;17.50;;;;;;;;;;4894808;29;20037;-70
2022/12/10 03:41:42;;;;;;;54.55;18.45;;;;;;;;;;4896135;29;20047;-72
2022/12/10 03:44:07;;;;;;;66.90;19.70;;;;;;;;;;4896918;29;20048;-70
2022/12/10 03:46:33;;;;;;;48.85;19.13;;;;;;;;;;4899269;29;20044;-71
2022/12/10 03:48:59;;;;;;;50.90;20.80;;;;;;;;;;4899565;29;20491;-70
2022/12/10 03:51:25;;;;;;;45.50;21.05;;;;;;;;;;4898011;29;20147;-69
2022/12/10 03:53:50;;;;;;;48.40;20.88;;;;;;;;;;4898155;29;20131;-70
2022/12/10 03:56:17;;;;;;;53.10;19.70;;;;;;;;;;4913677;29;20131;-71
2022/12/10 03:58:42;;;;;;;48.65;17.60;;;;;;;;;;4897923;29;20068;-70
2022/12/10 04:01:08;;;;;;;51.95;18.75;;;;;;;;;;4913499;29;20036;-71
2022/12/10 04:03:35;;;;;;;46.80;18.58;;;;;;;;;;4898966;29;20062;-71
2022/12/10 04:06:05;;;;;;;43.97;16.55;;;;;;;;;;4897750;29;20045;-71
2022/12/10 04:08:30;;;;;;;46.38;17.30;;;;;;;;;;4897930;29;20097;-71
2022/12/10 04:11:01;;;;;;;46.80;16.63;;;;;;;;;;4899289;29;20041;-71
2022/12/10 04:16:26;;;;;;;47.53;16.55;;;;;;;;;;4913377;29;20075;-71
2022/12/10 04:19:05;;;;;;;44.78;17.40;;;;;;;;;;4898583;29;20028;-71
2022/12/10 04:27:03;;;;;;;52.15;18.27;;;;;;;;;;4901225;29;20041;-72
2022/12/10 04:29:30;;;;;;;48.92;16.95;;;;;;;;;;4898371;29;20036;-71
2022/12/10 04:31:56;;;;;;;50.55;18.00;;;;;;;;;;4913379;29;20040;-70
2022/12/10 04:34:21;;;;;;;51.78;18.08;;;;;;;;;;4899838;29;20032;-70
2022/12/10 04:36:47;;;;;;;50.17;19.10;;;;;;;;;;4899788;29;20045;-70
2022/12/10 04:39:13;;;;;;;53.88;18.65;;;;;;;;;;4897958;29;20036;-70
2022/12/10 04:41:44;;;;;;;58.05;18.55;;;;;;;;;;4897448;29;20032;-70
2022/12/10 04:44:10;;;;;;;56.30;18.10;;;;;;;;;;4897438;29;20120;-71
2022/12/10 04:46:36;;;;;;;61.22;18.45;;;;;;;;;;4897002;29;20517;-70
2022/12/10 04:49:02;;;;;;;57.45;18.77;;;;;;;;;;4912771;29;20040;-71
2022/12/10 04:51:27;;;;;;;56.75;19.48;;;;;;;;;;4912832;29;20076;-70
2022/12/10 04:53:53;;;;;;;58.65;20.38;;;;;;;;;;4898087;29;20037;-69
2022/12/10 04:56:18;;;;;;;62.38;20.00;;;;;;;;;;4897178;29;20087;-70
2022/12/10 04:58:44;;;;;;;62.17;21.30;;;;;;;;;;4898131;29;20041;-70
2022/12/10 05:01:10;;;;;;;68.57;22.17;;;;;;;;;;4897994;29;20051;-70
2022/12/10 05:03:36;;;;;;;66.50;23.45;;;;;;;;;;4898156;29;20044;-70
2022/12/10 05:06:06;;;;;;;69.38;22.88;;;;;;;;;;4897966;29;20040;-70
2022/12/10 05:08:32;;;;;;;58.00;20.35;;;;;;;;;;4896492;29;20040;-69
2022/12/10 05:11:04;;;;;;;66.20;21.10;;;;;;;;;;4897755;29;20131;-71
2022/12/10 05:13:31;;;;;;;65.90;21.30;;;;;;;;;;4897605;29;20063;-70
2022/12/10 05:15:56;;;;;;;66.82;23.10;;;;;;;;;;4898006;29;20120;-70
2022/12/10 05:18:22;;;;;;;65.93;21.67;;;;;;;;;;4896450;29;20041;-70
2022/12/10 05:20:47;;;;;;;66.53;21.52;;;;;;;;;;4896564;29;20043;-68
2022/12/10 05:23:28;;;;;;;67.25;20.95;;;;;;;;;;4897549;29;20455;-70
2022/12/10 05:26:00;;;;;;;59.78;20.65;;;;;;;;;;4897581;29;20100;-70
2022/12/10 05:28:26;;;;;;;67.13;20.67;;;;;;;;;;4897470;29;20494;-70
2022/12/10 05:30:52;;;;;;;66.13;22.50;;;;;;;;;;4896182;29;20068;-70
2022/12/10 05:33:17;;;;;;;65.38;21.23;;;;;;;;;;4896074;29;20040;-70
2022/12/10 05:35:43;;;;;;;66.15;21.25;;;;;;;;;;4897313;29;20039;-70
2022/12/10 05:38:10;;;;;;;62.55;20.88;;;;;;;;;;4896072;29;20050;-70
2022/12/10 05:40:36;;;;;;;61.10;22.17;;;;;;;;;;4897743;29;20092;-69
2022/12/10 05:43:01;;;;;;;57.85;21.27;;;;;;;;;;4895914;29;20052;-70
2022/12/10 05:45:27;;;;;;;65.22;23.48;;;;;;;;;;4912391;29;20418;-70
2022/12/10 05:47:53;;;;;;;75.80;23.23;;;;;;;;;;4897889;29;20131;-70
2022/12/10 05:50:18;;;;;;;72.38;24.10;;;;;;;;;;4895927;29;20036;-69
2022/12/10 05:52:44;;;;;;;65.57;23.92;;;;;;;;;;4911512;29;20040;-70
2022/12/10 05:55:09;;;;;;;75.60;25.77;;;;;;;;;;4911399;29;20036;-69
2022/12/10 05:57:36;;;;;;;64.65;22.85;;;;;;;;;;4896993;29;20040;-70
2022/12/10 06:00:03;;;;;;;60.33;23.02;;;;;;;;;;4895923;29;20055;-69
2022/12/10 06:02:37;;;;;;;67.80;24.45;;;;;;;;;;4910237;29;20060;-70
2022/12/10 06:05:03;;;;;;;68.90;23.20;;;;;;;;;;4896800;29;20040;-70
2022/12/10 06:07:29;;;;;;;61.78;22.17;;;;;;;;;;4896630;29;20442;-68
2022/12/10 06:09:55;;;;;;;55.85;20.85;;;;;;;;;;4895475;29;20051;-68
2022/12/10 06:12:21;;;;;;;51.60;20.70;;;;;;;;;;4911207;29;20037;-68
2022/12/10 06:14:47;;;;;;;57.90;21.17;;;;;;;;;;4895506;29;20487;-68
2022/12/10 06:17:12;;;;;;;59.75;20.52;;;;;;;;;;4911106;29;20203;-69
2022/12/10 06:19:38;;;;;;;48.13;20.65;;;;;;;;;;4895380;29;20040;-67
2022/12/10 06:22:03;;;;;;;58.80;21.42;;;;;;;;;;4910748;29;20047;-68
2022/12/10 06:24:29;;;;;;;59.97;21.48;;;;;;;;;;4895294;29;20051;-68
2022/12/10 06:26:55;;;;;;;49.08;20.20;;;;;;;;;;4895058;29;20043;-67
2022/12/10 06:29:22;;;;;;;53.47;21.50;;;;;;;;;;4896542;29;20071;-68
2022/12/10 06:31:47;;;;;;;52.75;19.92;;;;;;;;;;4896284;29;20667;-72
2022/12/10 06:34:13;;;;;;;56.03;21.60;;;;;;;;;;4910799;29;20048;-73
2022/12/10 06:36:39;;;;;;;61.22;23.52;;;;;;;;;;4896611;29;20045;-68
2022/12/10 06:39:04;;;;;;;55.13;20.00;;;;;;;;;;4896264;29;20048;-68
2022/12/10 06:41:30;;;;;;;53.42;20.15;;;;;;;;;;4896346;29;20051;-67
2022/12/10 06:43:58;;;;;;;56.75;21.77;;;;;;;;;;4896308;29;20041;-67
2022/12/10 06:46:24;;;;;;;54.13;20.88;;;;;;;;;;4896547;29;20115;-69
2022/12/10 06:48:50;;;;;;;63.45;22.80;;;;;;;;;;4896569;29;20045;-68
2022/12/10 06:51:17;;;;;;;51.75;21.02;;;;;;;;;;4910805;29;20569;-67
2022/12/10 06:53:43;;;;;;;47.97;19.90;;;;;;;;;;4895036;29;20041;-67
2022/12/10 06:56:12;;;;;;;59.95;23.63;;;;;;;;;;4894998;29;20048;-69
2022/12/10 06:58:40;;;;;;;58.20;22.52;;;;;;;;;;4896331;29;20036;-71
2022/12/10 07:01:07;;;;;;;58.80;22.38;;;;;;;;;;4897731;29;20274;-72
2022/12/10 07:03:33;;;;;;;62.58;23.38;;;;;;;;;;4896086;29;20062;-69
2022/12/10 07:05:59;;;;;;;68.47;22.95;;;;;;;;;;4894936;29;20044;-67
2022/12/10 07:08:25;;;;;;;61.22;24.88;;;;;;;;;;4910684;29;20032;-68
2022/12/10 07:10:50;;;;;;;61.97;23.77;;;;;;;;;;4895161;29;20067;-70
2022/12/10 07:13:16;;;;;;;55.60;24.58;;;;;;;;;;4896095;29;20553;-72
2022/12/10 07:15:42;;;;;;;56.13;23.15;;;;;;;;;;4896613;29;20530;-70
2022/12/10 07:18:07;;;;;;;56.55;23.70;;;;;;;;;;4896021;29;20566;-68
2022/12/10 07:20:33;;;;;;;65.50;25.67;;;;;;;;;;4913978;29;20040;-70
2022/12/10 07:22:58;;;;;;;59.15;23.38;;;;;;;;;;4899631;29;20044;-70
2022/12/10 07:25:24;;;;;;;56.20;23.83;;;;;;;;;;4900210;29;20043;-68
2022/12/10 07:27:49;;;;;;;68.30;25.17;;;;;;;;;;4900012;29;20355;-70
2022/12/10 07:30:15;;;;;;;59.45;24.27;;;;;;;;;;4899636;29;20063;-69
2022/12/10 07:32:40;;;;;;;61.78;24.23;;;;;;;;;;4899570;29;20112;-70
2022/12/10 07:35:06;;;;;;;57.75;21.83;;;;;;;;;;4899917;29;20045;-68
2022/12/10 07:37:32;;;;;;;52.45;21.92;;;;;;;;;;4899569;29;20037;-68
2022/12/10 07:39:58;;;;;;;56.42;21.95;;;;;;;;;;4899496;29;20123;-69
2022/12/10 07:42:23;;;;;;;59.72;24.48;;;;;;;;;;4897903;29;20495;-69
2022/12/10 07:44:49;;;;;;;56.65;22.83;;;;;;;;;;4899523;29;20040;-71
2022/12/10 07:47:15;;;;;;;59.28;22.98;;;;;;;;;;4913651;29;20048;-70
2022/12/10 07:49:41;;;;;;;53.40;21.30;;;;;;;;;;4913912;29;20041;-72
2022/12/10 07:52:08;;;;;;;82.22;33.03;;;;;;;;;;4899152;29;20101;-70
2022/12/10 07:54:35;;;;;;;62.60;24.17;;;;;;;;;;4914013;29;20052;-70
2022/12/10 07:57:01;;;;;;;58.63;23.77;;;;;;;;;;4899020;29;20041;-69
2022/12/10 07:59:26;;;;;;;66.25;25.90;;;;;;;;;;4913838;29;20095;-70
2022/12/10 08:01:52;;;;;;;68.75;25.38;;;;;;;;;;4899391;29;20466;-70
2022/12/10 08:04:21;;;;;;;62.00;26.73;;;;;;;;;;4913612;29;20067;-72
2022/12/10 08:06:48;;;;;;;66.18;26.10;;;;;;;;;;4915646;29;20051;-73
2022/12/10 08:09:52;;;;;;;58.22;24.38;;;;;;;;;;4897440;29;20041;-73
2022/12/10 08:12:26;;;;;;;72.38;26.52;;;;;;;;;;4913389;29;20036;-71
2022/12/10 08:14:52;;;;;;;60.72;25.08;;;;;;;;;;4913382;29;20095;-72
2022/12/10 08:17:17;;;;;;;68.82;27.85;;;;;;;;;;4897438;29;20037;-72
2022/12/10 08:19:43;;;;;;;72.88;28.85;;;;;;;;;;4913237;29;20292;-72
2022/12/10 08:22:08;;;;;;;73.88;28.90;;;;;;;;;;4896999;29;20048;-71
2022/12/10 08:24:34;;;;;;;78.53;30.13;;;;;;;;;;4912875;29;20036;-71
2022/12/10 08:27:00;;;;;;;74.13;31.08;;;;;;;;;;4913316;29;20071;-71
2022/12/10 08:29:29;;;;;;;83.30;29.50;;;;;;;;;;4914267;29;20123;-70
2022/12/10 08:31:55;;;;;;;74.82;28.98;;;;;;;;;;4898556;29;20041;-73
2022/12/10 08:34:23;;;;;;;72.03;30.27;;;;;;;;;;4905322;29;20047;-75
2022/12/10 08:36:51;;;;;;;74.47;29.35;;;;;;;;;;4893437;29;20494;-75
2022/12/10 08:39:16;;;;;;;70.25;30.13;;;;;;;;;;4907107;29;20035;-72
2022/12/10 08:41:45;;;;;;;73.60;30.48;;;;;;;;;;4893532;29;20142;-70
2022/12/10 08:44:12;;;;;;;69.93;28.77;;;;;;;;;;4907708;29;20045;-68
2022/12/10 08:46:38;;;;;;;66.32;27.52;;;;;;;;;;4894663;29;20462;-72
2022/12/10 08:49:04;;;;;;;77.70;30.75;;;;;;;;;;4894642;29;20568;-72
2022/12/10 08:51:29;;;;;;;87.88;35.55;;;;;;;;;;4909999;29;20044;-72
2022/12/10 08:53:55;;;;;;;69.97;29.02;;;;;;;;;;4909377;29;20040;-71
2022/12/10 08:56:20;;;;;;;71.13;28.85;;;;;;;;;;4908791;29;20044;-67
2022/12/10 08:58:46;;;;;;;71.85;28.90;;;;;;;;;;4893468;29;20055;-72
2022/12/10 09:01:14;;;;;;;64.93;26.83;;;;;;;;;;4895255;29;20040;-68
2022/12/10 09:03:39;;;;;;;72.68;25.95;;;;;;;;;;4892858;29;20044;-67
2022/12/10 09:06:06;;;;;;;67.13;23.80;;;;;;;;;;4891370;29;20533;-69
2022/12/10 09:08:32;;;;;;;66.50;26.30;;;;;;;;;;4906814;29;20036;-67
2022/12/10 09:10:58;;;;;;;66.43;26.77;;;;;;;;;;4893566;29;20569;-68
2022/12/10 09:13:23;;;;;;;72.82;26.38;;;;;;;;;;4906481;29;20056;-68
2022/12/10 09:15:50;;;;;;;73.78;27.33;;;;;;;;;;4893754;29;20041;-67
2022/12/10 09:18:16;;;;;;;73.53;30.75;;;;;;;;;;4892653;29;20631;-68
2022/12/10 09:20:41;;;;;;;73.95;30.33;;;;;;;;;;4907936;29;20048;-72
2022/12/10 09:23:07;;;;;;;79.45;29.33;;;;;;;;;;4891400;29;20056;-67
2022/12/10 09:25:32;;;;;;;78.70;30.92;;;;;;;;;;4907654;29;20491;-68
2022/12/10 09:27:58;;;;;;;75.93;31.00;;;;;;;;;;4892635;29;20455;-68
2022/12/10 09:30:23;;;;;;;75.80;30.20;;;;;;;;;;4891898;29;20080;-68
2022/12/10 09:32:49;;;;;;;78.63;29.48;;;;;;;;;;4892390;29;20095;-68
2022/12/10 09:35:14;;;;;;;79.00;28.77;;;;;;;;;;4892251;29;20032;-69
2022/12/10 09:37:40;;;;;;;89.13;31.10;;;;;;;;;;4907689;29;20036;-70
2022/12/10 09:40:06;;;;;;;87.57;33.78;;;;;;;;;;4894213;29;20032;-69
2022/12/10 09:42:38;;;;;;;88.15;35.00;;;;;;;;;;4907053;29;20044;-68
2022/12/10 09:45:22;;;;;;;85.03;32.20;;;;;;;;;;4909318;29;20036;-68
2022/12/10 09:47:57;;;;;;;84.90;32.45;;;;;;;;;;4910348;29;20048;-69
2022/12/10 09:50:28;;;;;;;86.05;33.78;;;;;;;;;;4893742;29;20517;-67
2022/12/10 09:52:57;;;;;;;90.88;32.75;;;;;;;;;;4908638;29;20131;-67
2022/12/10 09:55:30;;;;;;;83.95;30.52;;;;;;;;;;4908159;29;20041;-67
2022/12/10 09:57:55;;;;;;;82.05;30.98;;;;;;;;;;4891987;29;20091;-66
2022/12/10 10:00:21;;;;;;;87.35;31.70;;;;;;;;;;4907186;29;20032;-65
2022/12/10 10:02:48;;;;;;;78.28;29.98;;;;;;;;;;4906614;29;20388;-67
2022/12/10 10:05:18;;;;;;;80.40;31.63;;;;;;;;;;4892414;29;20029;-65
2022/12/10 10:07:46;;;;;;;83.93;31.00;;;;;;;;;;4907263;29;20175;-65
2022/12/10 10:10:19;;;;;;;81.57;29.35;;;;;;;;;;4895246;29;20036;-64
2022/12/10 10:12:44;;;;;;;75.60;30.17;;;;;;;;;;4895253;29;20112;-64
2022/12/10 10:15:13;;;;;;;80.30;28.77;;;;;;;;;;4894529;29;20499;-63
2022/12/10 10:17:39;;;;;;;77.55;28.70;;;;;;;;;;4910154;29;20058;-69
2022/12/10 10:20:05;;;;;;;88.53;29.85;;;;;;;;;;4893117;29;20478;-68
2022/12/10 10:22:31;;;;;;;78.57;29.77;;;;;;;;;;4895601;29;20052;-64
2022/12/10 10:24:56;;;;;;;74.90;27.20;;;;;;;;;;4908653;29;20221;-65
2022/12/10 10:27:24;;;;;;;68.05;26.75;;;;;;;;;;4908100;29;20051;-64
2022/12/10 10:29:51;;;;;;;73.35;26.30;;;;;;;;;;4891809;29;20441;-66
2022/12/10 10:32:18;;;;;;;75.07;26.40;;;;;;;;;;4908797;29;20132;-66
2022/12/10 10:34:45;;;;;;;69.63;27.02;;;;;;;;;;4906858;29;20123;-64
2022/12/10 10:37:38;;;;;;;65.07;24.35;;;;;;;;;;4891075;29;20097;-66
2022/12/10 10:40:04;;;;;;;71.38;26.58;;;;;;;;;;4907037;29;20048;-64
2022/12/10 10:42:38;;;;;;;76.20;26.67;;;;;;;;;;4892835;29;20044;-66
2022/12/10 10:45:05;;;;;;;71.97;26.73;;;;;;;;;;4892860;29;20040;-68
2022/12/10 10:47:31;;;;;;;77.70;28.65;;;;;;;;;;4906996;29;20067;-71
2022/12/10 10:49:58;;;;;;;74.78;27.10;;;;;;;;;;4908535;29;20048;-69
2022/12/10 10:52:27;;;;;;;82.07;29.30;;;;;;;;;;4906361;29;20041;-71
2022/12/10 10:54:53;;;;;;;68.70;27.55;;;;;;;;;;4908606;29;20041;-72
2022/12/10 10:57:27;;;;;;;74.55;27.08;;;;;;;;;;4909886;29;20084;-68
2022/12/10 10:59:53;;;;;;;81.72;28.23;;;;;;;;;;4893943;29;20036;-67
2022/12/10 11:02:21;;;;;;;72.95;29.50;;;;;;;;;;4895556;29;21180;-68
2022/12/10 11:04:51;;;;;;;83.43;31.02;;;;;;;;;;4909560;29;20104;-68
2022/12/10 11:07:20;;;;;;;83.15;32.45;;;;;;;;;;4909340;29;20041;-66
2022/12/10 11:09:45;;;;;;;85.95;33.47;;;;;;;;;;4895985;29;20398;-67
2022/12/10 11:12:23;;;;;;;95.50;31.88;;;;;;;;;;4895778;29;20033;-66
2022/12/10 11:14:49;;;;;;;76.25;29.73;;;;;;;;;;4896062;29;20047;-66
2022/12/10 11:17:15;;;;;;;72.05;29.23;;;;;;;;;;4894557;29;20067;-67
2022/12/10 11:20:00;;;;;;;73.35;29.15;;;;;;;;;;4912811;29;20127;-69
2022/12/10 11:22:29;;;;;;;82.65;31.95;;;;;;;;;;4911475;29;20036;-66
2022/12/10 11:24:54;;;;;;;69.90;26.67;;;;;;;;;;4911302;29;20063;-66
2022/12/10 11:27:38;;;;;;;77.30;27.23;;;;;;;;;;4898356;29;20502;-65
2022/12/10 11:30:13;;;;;;;64.50;27.73;;;;;;;;;;4909631;29;20033;-68
2022/12/10 11:32:54;;;;;;;81.50;29.08;;;;;;;;;;4897409;29;20044;-67
2022/12/10 11:35:19;;;;;;;75.80;28.58;;;;;;;;;;4897156;29;20123;-67
2022/12/10 11:38:04;;;;;;;68.35;27.67;;;;;;;;;;4897953;29;20493;-66
2022/12/10 11:40:33;;;;;;;78.10;28.13;;;;;;;;;;4912680;29;20048;-67
2022/12/10 11:42:58;;;;;;;70.25;26.92;;;;;;;;;;4912590;29;20541;-67
2022/12/10 11:45:24;;;;;;;75.50;28.67;;;;;;;;;;4896627;29;20036;-67
2022/12/10 11:48:06;;;;;;;72.78;27.25;;;;;;;;;;4912110;29;20559;-66
2022/12/10 11:50:45;;;;;;;75.80;29.50;;;;;;;;;;4911935;29;20450;-67
2022/12/10 11:53:37;;;;;;;76.80;30.08;;;;;;;;;;4897431;29;20039;-69
2022/12/10 11:56:14;;;;;;;71.70;29.58;;;;;;;;;;4897234;29;20060;-66
2022/12/10 11:58:47;;;;;;;64.25;26.67;;;;;;;;;;4897303;29;20614;-68
2022/12/10 12:01:19;;;;;;;75.35;30.20;;;;;;;;;;4911661;29;20092;-68
2022/12/10 12:04:04;;;;;;;78.68;30.25;;;;;;;;;;4898369;29;20048;-66
2022/12/10 12:06:34;;;;;;;70.65;28.38;;;;;;;;;;4911795;29;20057;-68
2022/12/10 12:08:59;;;;;;;74.18;28.67;;;;;;;;;;4898114;29;20406;-68
2022/12/10 12:11:25;;;;;;;75.15;27.52;;;;;;;;;;4897072;29;20045;-66
2022/12/10 12:14:02;;;;;;;62.95;27.02;;;;;;;;;;4909148;29;20052;-68
2022/12/10 12:16:43;;;;;;;69.13;28.58;;;;;;;;;;4912506;29;20041;-67
2022/12/10 12:19:14;;;;;;;81.55;28.10;;;;;;;;;;4911923;29;20403;-67
2022/12/10 12:21:40;;;;;;;70.63;27.63;;;;;;;;;;4897887;29;20108;-67
2022/12/10 12:24:14;;;;;;;67.85;28.20;;;;;;;;;;4897517;29;20494;-68
2022/12/10 12:26:49;;;;;;;66.45;25.23;;;;;;;;;;4897025;29;20490;-66
2022/12/10 12:29:18;;;;;;;66.68;25.98;;;;;;;;;;4909223;29;20124;-67
2022/12/10 12:32:01;;;;;;;65.47;26.13;;;;;;;;;;4894496;29;20394;-67
2022/12/10 12:34:26;;;;;;;62.25;25.13;;;;;;;;;;4911824;29;20120;-67
2022/12/10 12:36:52;;;;;;;57.42;23.30;;;;;;;;;;4894973;29;20085;-66
2022/12/10 12:39:24;;;;;;;59.38;24.83;;;;;;;;;;4897091;29;20060;-64
2022/12/10 12:42:07;;;;;;;66.53;26.80;;;;;;;;;;4895879;29;20502;-69
2022/12/10 12:44:45;;;;;;;65.18;25.23;;;;;;;;;;4910476;29;20048;-68
2022/12/10 12:47:21;;;;;;;60.72;25.38;;;;;;;;;;4895256;29;20045;-67
2022/12/10 12:49:48;;;;;;;57.35;24.55;;;;;;;;;;4895707;29;20051;-66
2022/12/10 12:52:25;;;;;;;64.57;25.33;;;;;;;;;;4910215;29;20048;-67
2022/12/10 12:54:52;;;;;;;70.85;29.48;;;;;;;;;;4896669;29;20075;-66
2022/12/10 12:57:39;;;;;;;75.25;31.30;;;;;;;;;;4911081;29;20041;-67
2022/12/10 13:00:05;;;;;;;68.07;28.08;;;;;;;;;;4911450;29;20052;-67
2022/12/10 13:02:46;;;;;;;67.72;25.75;;;;;;;;;;4895066;29;20602;-67
2022/12/10 13:05:18;;;;;;;53.95;23.73;;;;;;;;;;4911342;29;20075;-67
2022/12/10 13:07:43;;;;;;;54.03;22.02;;;;;;;;;;4910833;29;20049;-67
2022/12/10 13:10:18;;;;;;;62.47;23.65;;;;;;;;;;4897409;29;20518;-66
2022/12/10 13:12:48;;;;;;;60.63;23.98;;;;;;;;;;4909607;29;20068;-69
2022/12/10 13:15:17;;;;;;;56.90;24.15;;;;;;;;;;4911109;29;20283;-69
2022/12/10 13:18:04;;;;;;;56.58;22.98;;;;;;;;;;4895173;29;20128;-70
2022/12/10 13:20:53;;;;;;;61.17;24.95;;;;;;;;;;4895016;29;20071;-70
2022/12/10 13:23:25;;;;;;;56.65;22.67;;;;;;;;;;4903509;29;20099;-70
2022/12/10 13:25:53;;;;;;;63.17;25.88;;;;;;;;;;4893551;29;20048;-71
2022/12/10 13:28:21;;;;;;;54.03;21.92;;;;;;;;;;4909636;29;20047;-70
2022/12/10 13:31:17;;;;;;;62.78;25.13;;;;;;;;;;4895970;29;20040;-70
2022/12/10 13:34:03;;;;;;;62.38;24.77;;;;;;;;;;4895338;29;20534;-69
2022/12/10 13:36:32;;;;;;;58.55;22.15;;;;;;;;;;4879707;29;20059;-74
2022/12/10 13:39:18;;;;;;;59.58;23.80;;;;;;;;;;4909738;29;20056;-75
2022/12/10 13:44:48;;;;;;;64.65;24.52;;;;;;;;;;4893746;29;20067;-75
2022/12/10 13:47:31;;;;;;;59.78;24.42;;;;;;;;;;4895366;29;20088;-74
2022/12/10 13:50:04;;;;;;;57.70;22.75;;;;;;;;;;4893795;29;20032;-73
2022/12/10 13:52:38;;;;;;;58.58;23.27;;;;;;;;;;4908650;29;20091;-73
2022/12/10 13:55:12;;;;;;;53.72;21.98;;;;;;;;;;4896316;29;20037;-72
2022/12/10 13:57:44;;;;;;;52.70;22.63;;;;;;;;;;4892771;29;20083;-74
2022/12/10 14:00:15;;;;;;;52.65;21.83;;;;;;;;;;4891966;29;20227;-74
2022/12/10 14:02:59;;;;;;;50.47;21.45;;;;;;;;;;4908306;29;20048;-74
2022/12/10 14:05:42;;;;;;;53.38;21.27;;;;;;;;;;4892332;29;20052;-71
2022/12/10 14:08:12;;;;;;;58.45;22.23;;;;;;;;;;4894256;29;20509;-70
2022/12/10 14:10:37;;;;;;;52.75;21.73;;;;;;;;;;4908888;29;20041;-70
2022/12/10 14:13:04;;;;;;;55.97;21.30;;;;;;;;;;4908307;29;20065;-73
2022/12/10 14:15:30;;;;;;;52.15;21.92;;;;;;;;;;4909119;29;20064;-71
2022/12/10 14:18:04;;;;;;;53.25;22.33;;;;;;;;;;4895618;29;20036;-73
2022/12/10 14:20:31;;;;;;;53.55;22.00;;;;;;;;;;4909600;29;20056;-74
2022/12/10 14:23:32;;;;;;;51.38;21.80;;;;;;;;;;4909079;29;20053;-73
2022/12/10 14:25:43;;;;;;;46.95;20.42;;;;;;;;;;4909242;29;20076;-73
2022/12/10 14:28:16;;;;;;;50.42;20.05;;;;;;;;;;4893780;29;20032;-72
2022/12/10 14:30:45;;;;;;;51.17;20.52;;;;;;;;;;4895413;29;20045;-71
2022/12/10 14:33:20;;;;;;;49.93;21.30;;;;;;;;;;4892447;29;20418;-72
2022/12/10 14:35:50;;;;;;;54.70;22.40;;;;;;;;;;4910989;29;20049;-74
2022/12/10 14:38:27;;;;;;;55.53;21.98;;;;;;;;;;4911208;29;20043;-74